Time;durP1;ratioP1;P1;durP2;ratioP2;P2;SDS_P1;SDS_P2;PMS_P1;PMS_P2;Temp;Humidity;BMP_temperature;BMP_pressure;BME280_temperature;BME280_humidity;BME280_pressure;Samples;Min_cycle;Max_cycle;Signal;HPM_P1;HPM_P2
2023/08/30 00:00:06;;;;;;;8.77;3.40;;;20.60;52.80;;;;;;5067842;28;20226;-66
2023/08/30 00:02:33;;;;;;;5.20;3.10;;;20.80;52.50;;;;;;5064588;28;20198;-71
2023/08/30 00:05:01;;;;;;;7.10;3.70;;;21.00;51.00;;;;;;5071019;28;20215;-67
2023/08/30 00:07:28;;;;;;;6.30;3.20;;;21.10;50.90;;;;;;5071053;28;20175;-67
2023/08/30 00:09:58;;;;;;;11.53;3.67;;;21.30;50.40;;;;;;5071519;28;20178;-69
2023/08/30 00:12:26;;;;;;;4.43;3.23;;;21.30;50.00;;;;;;5067541;28;20187;-69
2023/08/30 00:14:54;;;;;;;4.63;2.93;;;21.40;49.50;;;;;;5067804;28;20557;-73
2023/08/30 00:17:21;;;;;;;4.90;3.00;;;21.50;48.90;;;;;;5068129;28;20212;-73
2023/08/30 00:19:48;;;;;;;7.53;2.80;;;21.70;47.90;;;;;;5065647;28;20180;-71
2023/08/30 00:22:16;;;;;;;7.83;2.90;;;21.80;48.10;;;;;;5074086;28;20186;-69
2023/08/30 00:24:43;;;;;;;8.50;2.73;;;21.90;47.60;;;;;;5069524;28;20186;-72
2023/08/30 00:27:10;;;;;;;5.23;2.83;;;22.10;46.90;;;;;;5073273;28;20221;-69
2023/08/30 00:29:38;;;;;;;5.07;2.60;;;22.20;47.10;;;;;;5074436;28;20213;-71
2023/08/30 00:32:05;;;;;;;4.90;2.57;;;22.30;45.40;;;;;;5070520;28;20224;-72
2023/08/30 00:34:33;;;;;;;5.23;2.80;;;22.50;45.70;;;;;;5067559;28;20222;-71
2023/08/30 00:37:01;;;;;;;6.37;2.77;;;22.80;45.80;;;;;;5068537;28;20187;-74
2023/08/30 00:39:28;;;;;;;4.00;2.63;;;22.80;45.10;;;;;;5070168;28;20210;-74
2023/08/30 00:41:56;;;;;;;6.27;3.07;;;22.90;45.20;;;;;;5069815;28;20279;-71
2023/08/30 00:44:23;;;;;;;6.37;2.70;;;23.00;44.10;;;;;;5069628;28;20183;-73
2023/08/30 00:46:50;;;;;;;8.53;2.57;;;23.10;45.10;;;;;;5082114;28;20175;-71
2023/08/30 00:49:18;;;;;;;4.60;2.53;;;23.30;44.00;;;;;;5072276;28;20259;-70
2023/08/30 00:51:45;;;;;;;4.43;2.53;;;23.50;43.40;;;;;;5071491;28;20211;-68
2023/08/30 00:54:13;;;;;;;4.03;2.20;;;23.40;42.30;;;;;;5067300;28;20278;-69
2023/08/30 00:56:40;;;;;;;3.33;2.20;;;23.60;41.70;;;;;;5066337;28;20187;-74
2023/08/30 00:59:08;;;;;;;3.70;2.20;;;23.80;40.80;;;;;;5068014;28;20222;-68
2023/08/30 01:01:35;;;;;;;9.00;2.30;;;23.80;39.30;;;;;;5068536;28;20599;-71
2023/08/30 01:04:02;;;;;;;4.17;1.90;;;23.90;40.30;;;;;;5069728;28;20183;-70
2023/08/30 01:06:30;;;;;;;4.13;1.87;;;23.90;39.50;;;;;;5076025;28;20187;-67
2023/08/30 01:08:57;;;;;;;2.17;1.93;;;24.00;39.50;;;;;;5073078;28;20268;-66
2023/08/30 01:11:40;;;;;;;3.93;2.33;;;24.10;39.10;;;;;;5074096;28;20199;-69
2023/08/30 01:14:15;;;;;;;4.23;1.90;;;24.30;39.70;;;;;;5073834;28;20175;-71
2023/08/30 01:16:43;;;;;;;3.20;1.73;;;24.20;39.20;;;;;;5074340;28;20183;-73
2023/08/30 01:19:51;;;;;;;7.50;2.10;;;24.40;38.20;;;;;;5074646;28;20238;-71
2023/08/30 01:22:29;;;;;;;4.23;2.00;;;24.40;38.30;;;;;;5027961;28;20180;-71
2023/08/30 01:25:06;;;;;;;7.13;1.93;;;24.60;38.00;;;;;;5070270;28;20580;-67
2023/08/30 01:27:37;;;;;;;2.93;2.00;;;24.80;38.40;;;;;;5078340;28;20649;-71
2023/08/30 01:30:08;;;;;;;4.33;2.20;;;25.20;37.40;;;;;;5077859;28;20183;-70
2023/08/30 01:32:37;;;;;;;4.50;2.10;;;25.30;37.10;;;;;;5080391;28;20226;-71
2023/08/30 01:35:05;;;;;;;4.10;1.67;;;25.20;36.70;;;;;;5074559;28;20194;-70
2023/08/30 01:37:34;;;;;;;9.87;1.97;;;25.20;36.60;;;;;;5074982;28;20211;-73
2023/08/30 01:40:07;;;;;;;4.33;1.87;;;25.30;36.30;;;;;;5068315;28;20179;-71
2023/08/30 01:42:35;;;;;;;2.30;1.57;;;25.40;35.80;;;;;;5072139;28;20203;-68
2023/08/30 01:45:08;;;;;;;3.57;1.70;;;25.40;35.90;;;;;;5067817;28;20179;-69
2023/08/30 01:47:36;;;;;;;4.47;1.50;;;25.60;36.20;;;;;;5074988;28;20256;-69
2023/08/30 01:50:05;;;;;;;1.80;1.30;;;25.70;35.80;;;;;;5078153;28;20187;-72
2023/08/30 01:52:34;;;;;;;3.43;1.80;;;25.80;35.00;;;;;;5071546;28;20187;-71
2023/08/30 01:55:02;;;;;;;2.77;1.70;;;25.80;35.10;;;;;;5074807;28;20225;-71
2023/08/30 01:57:29;;;;;;;2.40;1.53;;;26.10;34.90;;;;;;5072691;28;20207;-68
2023/08/30 01:59:57;;;;;;;3.60;1.30;;;26.10;34.30;;;;;;5066587;28;20264;-66
2023/08/30 02:02:24;;;;;;;2.70;1.67;;;26.10;34.90;;;;;;5079281;28;20270;-74
2023/08/30 02:04:52;;;;;;;2.60;1.57;;;26.30;35.10;;;;;;5074296;28;20210;-76
2023/08/30 02:07:34;;;;;;;2.03;1.40;;;26.00;34.30;;;;;;5074348;28;20190;-69
2023/08/30 02:10:10;;;;;;;1.70;1.37;;;26.20;34.80;;;;;;5072727;28;20195;-73
2023/08/30 02:12:47;;;;;;;1.57;1.33;;;26.40;34.30;;;;;;5077349;28;20645;-66
2023/08/30 02:15:17;;;;;;;3.63;1.30;;;26.50;34.40;;;;;;5068481;28;20206;-75
2023/08/30 02:17:46;;;;;;;2.23;1.63;;;26.70;34.10;;;;;;5070633;28;20206;-74
2023/08/30 02:20:13;;;;;;;3.43;1.67;;;26.60;34.30;;;;;;5072604;28;20176;-70
2023/08/30 02:22:40;;;;;;;2.10;1.43;;;26.80;33.70;;;;;;5073389;28;20236;-66
2023/08/30 02:25:08;;;;;;;1.70;1.50;;;26.70;33.60;;;;;;5079968;28;20214;-68
2023/08/30 02:27:36;;;;;;;2.27;1.50;;;26.60;33.90;;;;;;5071666;28;20184;-69
2023/08/30 02:30:04;;;;;;;1.83;1.57;;;26.60;33.90;;;;;;5067427;28;20187;-68
2023/08/30 02:32:31;;;;;;;3.30;1.73;;;26.90;33.90;;;;;;5074946;28;20172;-71
2023/08/30 02:34:59;;;;;;;2.47;1.50;;;27.30;33.20;;;;;;5070109;28;20244;-70
2023/08/30 02:37:28;;;;;;;6.60;1.80;;;27.40;32.70;;;;;;5067874;28;20224;-69
2023/08/30 02:39:55;;;;;;;3.67;1.63;;;27.30;33.00;;;;;;5071824;28;20695;-66
2023/08/30 02:42:22;;;;;;;2.43;1.70;;;27.30;32.60;;;;;;5072273;28;20210;-67
2023/08/30 02:44:50;;;;;;;3.70;1.90;;;27.30;33.40;;;;;;5072069;28;20281;-68
2023/08/30 02:47:17;;;;;;;4.20;1.57;;;27.30;33.10;;;;;;5073173;28;20263;-70
2023/08/30 02:49:44;;;;;;;1.83;1.33;;;27.50;33.30;;;;;;5073564;28;20507;-68
2023/08/30 02:52:12;;;;;;;1.80;1.30;;;27.50;32.10;;;;;;5072880;28;20653;-71
2023/08/30 02:54:39;;;;;;;3.20;1.70;;;27.40;32.00;;;;;;5073295;28;20219;-68
2023/08/30 02:57:06;;;;;;;2.13;1.40;;;27.60;32.30;;;;;;5073317;28;20191;-73
2023/08/30 02:59:34;;;;;;;2.23;1.40;;;27.60;32.60;;;;;;5073036;28;20195;-70
2023/08/30 03:02:01;;;;;;;2.10;1.50;;;27.80;32.30;;;;;;5071996;28;20179;-71
2023/08/30 03:04:29;;;;;;;1.67;1.57;;;27.40;31.70;;;;;;5068893;28;20183;-66
2023/08/30 03:06:56;;;;;;;3.27;1.30;;;27.30;31.70;;;;;;5071069;28;20314;-66
2023/08/30 03:09:23;;;;;;;1.53;1.13;;;27.80;31.50;;;;;;5073194;28;20541;-71
2023/08/30 03:11:51;;;;;;;4.47;1.33;;;28.10;31.30;;;;;;5072600;28;20222;-66
2023/08/30 03:14:18;;;;;;;4.87;1.80;;;28.10;30.90;;;;;;5073171;28;20195;-67
2023/08/30 03:16:47;;;;;;;1.97;1.17;;;28.60;30.70;;;;;;5071016;28;20613;-70
2023/08/30 03:19:17;;;;;;;1.33;1.23;;;28.60;29.90;;;;;;5072614;28;20249;-74
2023/08/30 03:21:44;;;;;;;3.03;1.40;;;28.90;28.90;;;;;;5071572;28;20262;-70
2023/08/30 03:24:13;;;;;;;1.77;1.37;;;28.80;29.30;;;;;;5071962;28;20653;-73
2023/08/30 03:26:42;;;;;;;2.80;1.50;;;28.80;28.30;;;;;;5072118;28;20179;-70
2023/08/30 03:29:10;;;;;;;2.50;1.60;;;28.90;28.60;;;;;;5072724;28;20172;-67
2023/08/30 03:31:37;;;;;;;1.75;1.45;;;29.10;28.30;;;;;;5068105;28;20179;-71
2023/08/30 03:34:05;;;;;;;2.90;1.35;;;28.90;28.30;;;;;;5072593;28;20222;-68
2023/08/30 03:36:32;;;;;;;4.93;1.48;;;29.00;28.20;;;;;;5072919;28;20183;-69
2023/08/30 03:39:03;;;;;;;1.87;1.40;;;28.90;28.10;;;;;;5072677;28;20545;-69
2023/08/30 03:41:30;;;;;;;1.77;1.20;;;29.00;27.80;;;;;;5073613;28;20175;-68
2023/08/30 03:43:57;;;;;;;1.87;1.40;;;29.30;27.40;;;;;;5072591;28;20179;-66
2023/08/30 03:46:25;;;;;;;2.17;1.30;;;29.20;27.80;;;;;;5072549;28;20179;-67
2023/08/30 03:48:52;;;;;;;8.93;7.03;;;28.70;28.10;;;;;;5074223;28;20819;-66
2023/08/30 03:51:20;;;;;;;3.20;1.60;;;28.00;28.50;;;;;;5076271;28;20206;-67
2023/08/30 03:53:47;;;;;;;2.43;1.27;;;27.40;29.50;;;;;;5072964;28;20185;-65
2023/08/30 03:56:14;;;;;;;2.17;1.43;;;27.20;29.90;;;;;;5074853;28;20187;-66
2023/08/30 03:58:41;;;;;;;2.97;1.57;;;26.90;30.90;;;;;;5071633;28;20234;-71
2023/08/30 04:01:09;;;;;;;4.57;1.60;;;26.70;30.90;;;;;;5074612;28;20175;-67
2023/08/30 04:03:36;;;;;;;2.03;1.40;;;26.40;30.90;;;;;;5069503;28;20202;-74
2023/08/30 04:06:03;;;;;;;6.70;1.30;;;26.30;31.10;;;;;;5073752;28;20171;-66
2023/08/30 04:08:31;;;;;;;5.40;1.80;;;26.20;31.10;;;;;;5069970;28;20197;-66
2023/08/30 04:10:58;;;;;;;2.37;1.30;;;26.20;31.30;;;;;;5072746;28;20530;-65
2023/08/30 04:13:25;;;;;;;9.57;1.53;;;26.00;30.80;;;;;;5071746;28;20225;-67
2023/08/30 04:15:54;;;;;;;4.23;1.80;;;26.00;31.40;;;;;;5073786;28;20712;-66
2023/08/30 04:18:21;;;;;;;4.83;1.43;;;25.90;31.30;;;;;;5071228;28;20211;-65
2023/08/30 04:20:48;;;;;;;3.13;1.70;;;25.90;31.60;;;;;;5070537;28;20179;-66
2023/08/30 04:23:16;;;;;;;4.07;1.60;;;25.80;31.60;;;;;;5073261;28;20186;-67
2023/08/30 04:25:45;;;;;;;1.87;1.40;;;25.80;32.10;;;;;;5076970;28;20638;-68
2023/08/30 04:28:12;;;;;;;3.50;1.43;;;25.80;32.80;;;;;;5072462;28;20253;-67
2023/08/30 04:30:40;;;;;;;6.17;1.70;;;25.80;32.60;;;;;;5070200;28;20219;-66
2023/08/30 04:33:07;;;;;;;6.33;2.97;;;25.80;32.40;;;;;;5069328;28;20210;-67
2023/08/30 04:35:35;;;;;;;7.27;3.43;;;25.60;38.90;;;;;;5071113;28;20197;-69
2023/08/30 04:38:03;;;;;;;8.90;3.63;;;25.10;42.60;;;;;;5070174;28;20261;-65
2023/08/30 04:40:31;;;;;;;5.83;3.63;;;24.40;45.90;;;;;;5074968;28;20187;-68
2023/08/30 04:43:01;;;;;;;8.90;3.60;;;24.00;47.40;;;;;;5073296;28;20195;-65
2023/08/30 04:45:29;;;;;;;8.00;3.70;;;23.80;48.80;;;;;;5070042;28;20641;-68
2023/08/30 04:47:56;;;;;;;8.90;3.43;;;23.50;50.50;;;;;;5071029;28;20290;-67
2023/08/30 04:50:24;;;;;;;7.33;4.00;;;23.40;51.30;;;;;;5074482;28;20262;-66
2023/08/30 04:52:51;;;;;;;8.13;3.97;;;23.20;51.90;;;;;;5066947;28;20298;-67
2023/08/30 04:55:18;;;;;;;9.50;3.40;;;23.10;52.60;;;;;;5071120;28;20209;-65
2023/08/30 04:57:47;;;;;;;6.93;3.57;;;23.00;52.90;;;;;;5069682;28;20207;-67
2023/08/30 05:00:15;;;;;;;7.77;3.70;;;22.90;53.50;;;;;;5071185;28;20191;-67
2023/08/30 05:02:43;;;;;;;7.57;3.50;;;22.80;54.10;;;;;;5070458;28;20179;-66
2023/08/30 05:05:11;;;;;;;8.00;3.90;;;22.70;54.70;;;;;;5065159;28;20271;-69
2023/08/30 05:07:38;;;;;;;10.70;3.83;;;22.80;54.80;;;;;;5071147;28;20248;-70
2023/08/30 05:10:06;;;;;;;10.40;3.83;;;22.70;55.10;;;;;;5070276;28;20187;-66
2023/08/30 05:12:37;;;;;;;11.30;3.50;;;22.60;55.40;;;;;;5070959;28;20538;-65
2023/08/30 05:15:05;;;;;;;11.50;4.27;;;22.60;55.60;;;;;;5069922;28;20232;-69
2023/08/30 05:17:35;;;;;;;13.50;3.80;;;22.50;55.50;;;;;;5069922;28;20187;-65
2023/08/30 05:20:04;;;;;;;12.43;3.97;;;22.50;58.20;;;;;;5070236;28;20202;-68
2023/08/30 05:22:31;;;;;;;10.67;4.27;;;22.30;61.60;;;;;;5071173;28;20270;-67
2023/08/30 05:24:58;;;;;;;7.03;3.47;;;22.20;63.80;;;;;;5071237;28;20199;-66
2023/08/30 05:27:26;;;;;;;9.97;3.53;;;22.00;65.00;;;;;;5071107;28;20248;-67
2023/08/30 05:29:55;;;;;;;5.97;3.60;;;21.80;65.50;;;;;;5070022;28;20199;-65
2023/08/30 05:32:23;;;;;;;9.30;3.93;;;21.70;65.20;;;;;;5069681;28;20190;-66
2023/08/30 05:34:50;;;;;;;7.70;3.70;;;21.50;65.60;;;;;;5066843;28;20184;-68
2023/08/30 05:37:18;;;;;;;7.87;4.23;;;21.40;65.30;;;;;;5070680;28;20207;-68
2023/08/30 05:39:45;;;;;;;11.33;3.80;;;21.30;65.50;;;;;;5067131;28;20183;-67
2023/08/30 05:42:12;;;;;;;7.23;3.53;;;21.20;65.90;;;;;;5071460;28;20653;-69
2023/08/30 05:44:40;;;;;;;8.53;3.27;;;21.20;65.80;;;;;;5069627;28;20221;-73
2023/08/30 05:47:07;;;;;;;7.70;2.63;;;21.20;64.40;;;;;;5072090;28;20225;-71
2023/08/30 05:49:34;;;;;;;6.47;2.67;;;21.20;62.50;;;;;;5074498;28;20194;-72
2023/08/30 05:52:02;;;;;;;8.13;3.90;;;21.20;60.90;;;;;;5066297;28;20167;-73
2023/08/30 05:54:31;;;;;;;13.43;3.97;;;21.30;61.70;;;;;;5074369;28;20213;-71
2023/08/30 05:56:58;;;;;;;16.77;4.97;;;21.30;64.20;;;;;;5073812;28;20179;-71
2023/08/30 05:59:26;;;;;;;16.40;4.57;;;21.00;68.80;;;;;;5074175;28;20249;-71
2023/08/30 06:01:53;;;;;;;9.03;3.23;;;20.80;71.70;;;;;;5069063;28;20187;-70
2023/08/30 06:04:21;;;;;;;7.57;3.47;;;20.30;72.50;;;;;;5074656;28;20214;-73
2023/08/30 06:06:48;;;;;;;7.33;3.50;;;20.20;74.30;;;;;;5074450;28;20183;-72
2023/08/30 06:09:15;;;;;;;5.73;2.37;;;20.00;75.50;;;;;;5074539;28;20183;-75
2023/08/30 06:11:43;;;;;;;5.67;2.40;;;19.40;71.30;;;;;;5072254;28;20172;-75
2023/08/30 06:14:10;;;;;;;3.60;1.90;;;19.40;65.00;;;;;;5074757;28;20190;-73
2023/08/30 06:16:37;;;;;;;4.37;2.00;;;19.40;62.80;;;;;;5070847;28;20167;-72
2023/08/30 06:19:05;;;;;;;10.97;3.70;;;18.90;64.60;;;;;;5076863;28;20207;-71
2023/08/30 06:21:32;;;;;;;6.63;2.40;;;18.50;70.30;;;;;;5074064;28;20521;-75
2023/08/30 06:23:59;;;;;;;8.53;2.37;;;17.80;73.30;;;;;;5074231;28;20175;-73
2023/08/30 06:26:27;;;;;;;10.27;2.97;;;17.50;76.40;;;;;;5073832;28;20189;-67
2023/08/30 06:28:54;;;;;;;4.83;2.73;;;17.10;78.70;;;;;;5074325;28;20210;-71
2023/08/30 06:31:21;;;;;;;4.63;2.40;;;16.70;81.10;;;;;;5073975;28;20180;-70
2023/08/30 06:33:50;;;;;;;5.90;2.37;;;16.50;81.30;;;;;;5073293;28;20234;-71
2023/08/30 06:36:18;;;;;;;6.43;2.83;;;16.40;82.60;;;;;;5073651;28;20190;-72
2023/08/30 06:38:45;;;;;;;5.10;2.40;;;16.30;82.40;;;;;;5072485;28;20208;-73
2023/08/30 06:41:12;;;;;;;2.60;2.07;;;16.20;81.30;;;;;;5073872;28;20252;-71
2023/08/30 06:43:40;;;;;;;3.87;2.60;;;16.20;81.20;;;;;;5073433;28;20666;-72
2023/08/30 06:46:07;;;;;;;4.10;2.63;;;16.30;81.90;;;;;;5073815;28;20194;-75
2023/08/30 06:48:35;;;;;;;4.27;2.83;;;16.20;82.00;;;;;;5073959;28;20177;-69
2023/08/30 06:51:03;;;;;;;4.73;3.10;;;16.20;82.20;;;;;;5073496;28;20183;-73
2023/08/30 06:53:30;;;;;;;5.30;2.83;;;16.20;82.10;;;;;;5073576;28;20645;-73
2023/08/30 06:56:04;;;;;;;4.90;2.53;;;16.20;81.30;;;;;;5073020;28;20213;-68
2023/08/30 06:58:31;;;;;;;6.63;2.93;;;16.20;81.00;;;;;;5070083;28;20228;-71
2023/08/30 07:00:59;;;;;;;4.70;2.83;;;16.30;81.50;;;;;;5071219;28;20175;-72
2023/08/30 07:03:26;;;;;;;4.77;2.40;;;16.20;81.10;;;;;;5072325;28;20232;-73
2023/08/30 07:05:54;;;;;;;10.13;2.97;;;16.10;81.30;;;;;;5070189;28;20266;-70
2023/08/30 07:08:21;;;;;;;3.93;2.30;;;16.10;82.50;;;;;;5068700;28;20181;-72
2023/08/30 07:10:49;;;;;;;4.13;2.60;;;15.90;81.90;;;;;;5071832;28;20518;-68
2023/08/30 07:13:16;;;;;;;3.97;2.70;;;16.00;82.80;;;;;;5069396;28;20169;-73
2023/08/30 07:15:44;;;;;;;3.43;2.73;;;15.90;82.60;;;;;;5070220;28;20616;-72
2023/08/30 07:18:11;;;;;;;7.40;2.80;;;15.80;83.10;;;;;;5072514;28;20745;-72
2023/08/30 07:20:40;;;;;;;2.90;2.07;;;15.90;83.70;;;;;;5071289;28;20522;-72
2023/08/30 07:23:07;;;;;;;3.13;2.30;;;15.70;82.50;;;;;;5071961;28;20727;-71
2023/08/30 07:25:36;;;;;;;4.63;2.70;;;15.70;81.90;;;;;;5072675;28;20181;-69
2023/08/30 07:28:04;;;;;;;2.77;2.57;;;15.80;83.20;;;;;;5068546;28;20193;-70
2023/08/30 07:30:32;;;;;;;7.53;2.73;;;15.70;83.00;;;;;;5070803;28;20175;-71
2023/08/30 07:32:59;;;;;;;5.03;3.03;;;15.60;82.60;;;;;;5071624;28;20223;-71
2023/08/30 07:35:27;;;;;;;4.83;3.10;;;15.60;83.50;;;;;;5072504;28;20175;-66
2023/08/30 07:37:54;;;;;;;4.10;3.00;;;15.60;83.90;;;;;;5071995;28;20199;-72
2023/08/30 07:40:26;;;;;;;3.60;2.93;;;15.70;84.30;;;;;;5072174;28;20184;-72
2023/08/30 07:42:53;;;;;;;5.30;3.27;;;15.60;84.80;;;;;;5072023;28;20191;-72
2023/08/30 07:45:20;;;;;;;3.20;2.77;;;15.50;85.00;;;;;;5070597;28;20183;-71
2023/08/30 07:47:48;;;;;;;5.37;3.20;;;15.40;84.60;;;;;;5071666;28;20687;-68
2023/08/30 07:50:15;;;;;;;4.60;3.23;;;15.30;85.10;;;;;;5072337;28;20186;-70
2023/08/30 07:52:42;;;;;;;5.53;3.40;;;15.30;85.00;;;;;;5071828;28;20213;-71
2023/08/30 07:55:10;;;;;;;4.67;2.77;;;15.30;85.30;;;;;;5072391;28;20241;-72
2023/08/30 07:57:37;;;;;;;3.73;3.30;;;15.20;84.70;;;;;;5071364;28;20177;-71
2023/08/30 08:00:05;;;;;;;4.97;3.07;;;15.30;85.20;;;;;;5072189;28;20226;-70
2023/08/30 08:02:32;;;;;;;6.77;3.07;;;15.30;85.10;;;;;;5071747;28;20190;-71
2023/08/30 08:05:00;;;;;;;4.23;3.17;;;15.30;85.50;;;;;;5071807;28;20176;-71
2023/08/30 08:07:27;;;;;;;3.40;3.10;;;15.30;85.90;;;;;;5071887;28;20258;-72
2023/08/30 08:09:55;;;;;;;4.27;3.30;;;15.20;85.30;;;;;;5069349;28;20278;-71
2023/08/30 08:12:22;;;;;;;4.57;4.13;;;15.30;86.00;;;;;;5071967;28;20183;-71
2023/08/30 08:14:49;;;;;;;7.57;3.97;;;15.40;86.50;;;;;;5071394;28;20530;-71
2023/08/30 08:17:17;;;;;;;4.73;4.33;;;15.30;86.80;;;;;;5062707;28;20181;-72
2023/08/30 08:19:44;;;;;;;5.80;4.60;;;15.30;87.40;;;;;;5068106;28;20691;-71
2023/08/30 08:22:11;;;;;;;5.30;4.80;;;15.40;87.90;;;;;;5072904;28;20261;-71
2023/08/30 08:24:39;;;;;;;6.33;5.70;;;15.50;88.10;;;;;;5073364;28;20587;-67
2023/08/30 08:27:06;;;;;;;6.50;5.63;;;15.40;88.60;;;;;;5067883;28;20812;-65
2023/08/30 08:29:33;;;;;;;7.93;5.60;;;15.30;88.40;;;;;;5067047;28;20587;-66
2023/08/30 08:32:01;;;;;;;9.17;6.47;;;15.20;88.50;;;;;;5067202;28;20548;-66
2023/08/30 08:34:28;;;;;;;10.50;6.57;;;15.20;88.70;;;;;;5071577;28;20218;-70
2023/08/30 08:36:56;;;;;;;11.60;6.90;;;15.20;89.30;;;;;;5070824;28;20563;-70
2023/08/30 08:39:23;;;;;;;9.80;6.97;;;15.20;89.10;;;;;;5071624;28;20207;-70
2023/08/30 08:41:54;;;;;;;10.97;6.97;;;15.30;89.50;;;;;;5070544;28;20175;-70
2023/08/30 08:44:23;;;;;;;10.63;8.50;;;15.20;89.60;;;;;;5068495;28;20187;-71
2023/08/30 08:46:52;;;;;;;8.67;7.77;;;15.20;89.70;;;;;;5069046;28;20202;-71
2023/08/30 08:49:20;;;;;;;7.80;6.50;;;15.20;89.70;;;;;;5069337;28;20175;-65
2023/08/30 08:51:47;;;;;;;8.40;7.53;;;15.20;89.80;;;;;;5069916;28;20185;-65
2023/08/30 08:54:16;;;;;;;9.07;8.10;;;15.10;89.60;;;;;;5070810;28;20191;-72
2023/08/30 08:56:44;;;;;;;11.37;8.33;;;15.10;90.10;;;;;;5067728;28;20272;-65
2023/08/30 08:59:11;;;;;;;13.33;11.90;;;15.10;90.10;;;;;;5071775;28;20211;-69
2023/08/30 09:01:40;;;;;;;13.47;11.90;;;15.10;90.20;;;;;;5070794;28;20179;-64
2023/08/30 09:04:09;;;;;;;18.67;14.87;;;15.20;90.60;;;;;;5064109;28;20215;-64
2023/08/30 09:06:43;;;;;;;16.37;14.67;;;15.10;90.70;;;;;;5068125;28;20263;-64
2023/08/30 09:09:10;;;;;;;18.07;16.20;;;15.10;90.80;;;;;;5064056;28;20205;-64
2023/08/30 09:11:38;;;;;;;17.87;15.87;;;15.10;91.20;;;;;;5070299;28;20201;-68
2023/08/30 09:14:05;;;;;;;19.83;17.80;;;15.10;91.10;;;;;;5071254;28;20635;-64
2023/08/30 09:16:32;;;;;;;22.87;17.67;;;15.10;91.40;;;;;;5070835;28;20306;-64
2023/08/30 09:19:00;;;;;;;18.50;14.93;;;15.10;91.40;;;;;;5069967;28;20199;-64
2023/08/30 09:21:28;;;;;;;18.70;16.80;;;15.10;91.50;;;;;;5070835;28;20259;-64
2023/08/30 09:24:03;;;;;;;19.57;17.77;;;15.00;91.50;;;;;;5073689;28;20193;-64
2023/08/30 09:26:32;;;;;;;17.90;16.27;;;15.10;91.70;;;;;;5073660;28;20240;-64
2023/08/30 09:29:04;;;;;;;19.27;17.47;;;15.10;91.70;;;;;;5068088;28;20218;-65
2023/08/30 09:31:40;;;;;;;17.97;16.13;;;15.00;91.80;;;;;;5074409;28;20192;-63
2023/08/30 09:34:07;;;;;;;22.47;20.10;;;15.00;91.90;;;;;;5071543;28;20279;-63
2023/08/30 09:36:39;;;;;;;19.90;17.97;;;14.90;91.80;;;;;;5074645;28;20265;-64
2023/08/30 09:39:14;;;;;;;18.47;16.90;;;14.70;91.50;;;;;;5070976;28;20230;-64
2023/08/30 09:41:50;;;;;;;23.10;21.17;;;14.70;91.80;;;;;;5073962;28;20234;-64
2023/08/30 09:44:20;;;;;;;21.17;19.47;;;14.60;91.70;;;;;;5074665;28;20614;-64
2023/08/30 09:46:52;;;;;;;19.63;17.77;;;14.60;91.50;;;;;;5070871;28;20226;-64
2023/08/30 09:49:23;;;;;;;18.47;16.90;;;14.60;91.50;;;;;;5071730;28;20179;-63
2023/08/30 09:51:54;;;;;;;16.60;15.20;;;14.50;91.40;;;;;;5085569;28;20183;-63
2023/08/30 09:54:24;;;;;;;16.10;14.80;;;14.50;91.10;;;;;;5072180;28;20210;-63
2023/08/30 09:56:56;;;;;;;19.17;17.83;;;14.50;91.10;;;;;;5072903;28;20230;-64
2023/08/30 09:59:23;;;;;;;18.97;17.20;;;14.50;91.30;;;;;;5074112;28;20302;-63
2023/08/30 10:01:54;;;;;;;17.37;16.07;;;14.50;91.10;;;;;;5073933;28;20195;-65
2023/08/30 10:04:23;;;;;;;17.33;16.07;;;14.40;90.90;;;;;;5074696;28;20199;-66
2023/08/30 10:06:53;;;;;;;18.63;17.10;;;14.50;90.70;;;;;;5073038;28;20270;-70
2023/08/30 10:09:21;;;;;;;21.10;19.20;;;14.60;91.10;;;;;;5074637;28;20225;-69
2023/08/30 10:11:49;;;;;;;21.70;20.03;;;14.60;90.90;;;;;;5072819;28;20260;-65
2023/08/30 10:14:17;;;;;;;18.50;17.10;;;14.50;90.50;;;;;;5073176;28;20187;-64
2023/08/30 10:16:49;;;;;;;16.53;15.33;;;14.50;90.40;;;;;;5072244;28;20698;-64
2023/08/30 10:19:19;;;;;;;19.40;18.00;;;14.50;89.90;;;;;;5068708;28;20206;-69
2023/08/30 10:21:53;;;;;;;20.00;18.70;;;14.60;90.20;;;;;;5071195;28;20186;-67
2023/08/30 10:24:22;;;;;;;16.73;15.47;;;14.70;89.90;;;;;;5071495;28;20185;-64
2023/08/30 10:26:50;;;;;;;18.77;17.43;;;14.60;89.60;;;;;;5072881;28;20188;-65
2023/08/30 10:29:19;;;;;;;20.47;19.10;;;14.60;89.40;;;;;;5068326;28;20230;-64
2023/08/30 10:31:47;;;;;;;21.90;20.70;;;14.70;89.80;;;;;;5071488;28;20666;-65
2023/08/30 10:34:19;;;;;;;25.93;24.40;;;14.60;90.00;;;;;;5077553;28;20234;-65
2023/08/30 10:36:57;;;;;;;30.20;27.97;;;14.60;90.20;;;;;;5073262;28;20188;-64
2023/08/30 10:39:37;;;;;;;33.63;31.70;;;14.50;90.50;;;;;;5070430;28;20238;-65
2023/08/30 10:42:15;;;;;;;35.13;32.23;;;14.50;90.50;;;;;;5072435;28;20194;-65
2023/08/30 10:44:52;;;;;;;25.17;23.57;;;14.50;90.60;;;;;;5071337;28;20699;-70
2023/08/30 10:47:22;;;;;;;21.93;20.70;;;14.50;90.40;;;;;;5071199;28;21854;-68
2023/08/30 10:49:50;;;;;;;19.47;18.13;;;14.50;89.90;;;;;;5073354;28;20196;-66
2023/08/30 10:52:17;;;;;;;16.83;15.80;;;14.50;89.70;;;;;;5072293;28;20187;-65
2023/08/30 10:54:45;;;;;;;19.47;18.37;;;14.50;89.60;;;;;;5071748;28;20178;-66
2023/08/30 10:57:18;;;;;;;15.50;14.50;;;14.50;89.00;;;;;;5071332;28;20193;-72
2023/08/30 11:00:08;;;;;;;12.83;11.93;;;14.50;88.60;;;;;;5071534;28;20707;-67
2023/08/30 11:02:37;;;;;;;12.47;11.53;;;14.50;88.10;;;;;;5076085;28;20191;-73
2023/08/30 11:05:09;;;;;;;11.40;10.60;;;14.60;87.90;;;;;;5070680;28;20185;-73
2023/08/30 11:07:36;;;;;;;13.37;12.57;;;14.60;88.00;;;;;;5068907;28;20536;-72
2023/08/30 11:10:08;;;;;;;15.10;14.10;;;14.70;88.20;;;;;;5072040;28;20175;-71
2023/08/30 11:12:36;;;;;;;14.90;13.80;;;14.70;88.10;;;;;;5074677;28;20179;-70
2023/08/30 11:15:04;;;;;;;13.60;12.80;;;14.70;87.80;;;;;;5072886;28;20206;-73
2023/08/30 11:17:31;;;;;;;11.10;10.30;;;14.70;87.70;;;;;;5071735;28;20229;-74
2023/08/30 11:20:09;;;;;;;11.90;10.77;;;14.70;86.70;;;;;;5070436;28;20245;-73
2023/08/30 11:22:47;;;;;;;8.47;7.93;;;14.80;86.30;;;;;;5071893;28;20196;-72
2023/08/30 11:25:16;;;;;;;7.90;7.40;;;14.80;86.00;;;;;;5072355;28;20188;-68
2023/08/30 11:27:44;;;;;;;9.00;8.30;;;14.80;85.80;;;;;;5071231;28;20656;-65
2023/08/30 11:30:12;;;;;;;8.30;7.80;;;14.80;86.10;;;;;;5070640;28;20210;-71
2023/08/30 11:32:44;;;;;;;11.10;10.30;;;14.80;86.30;;;;;;5069466;28;20246;-67
2023/08/30 11:35:11;;;;;;;12.07;10.87;;;14.80;86.70;;;;;;5071710;28;20189;-65
2023/08/30 11:37:40;;;;;;;12.43;11.53;;;14.90;87.20;;;;;;5071437;28;20186;-71
2023/08/30 11:40:08;;;;;;;11.40;10.60;;;14.90;87.40;;;;;;5070538;28;21493;-67
2023/08/30 11:42:36;;;;;;;10.83;10.13;;;14.90;87.80;;;;;;5068443;28;20178;-65
2023/08/30 11:45:07;;;;;;;11.27;10.40;;;14.80;87.60;;;;;;5070130;28;20213;-68
2023/08/30 11:47:35;;;;;;;9.03;8.53;;;14.80;87.60;;;;;;5071401;28;20206;-70
2023/08/30 11:50:03;;;;;;;10.60;10.00;;;14.80;87.40;;;;;;5069969;28;20191;-64
2023/08/30 11:52:31;;;;;;;11.07;10.37;;;14.80;87.90;;;;;;5072434;28;20644;-69
2023/08/30 11:55:00;;;;;;;11.43;10.73;;;14.70;87.80;;;;;;5071976;28;20260;-66
2023/08/30 11:57:28;;;;;;;9.87;9.17;;;14.70;87.80;;;;;;5072208;28;20188;-67
2023/08/30 11:59:55;;;;;;;10.97;10.27;;;14.60;87.60;;;;;;5071436;28;20289;-65
2023/08/30 12:02:23;;;;;;;11.60;10.90;;;14.50;87.80;;;;;;5068524;28;20183;-70
2023/08/30 12:04:53;;;;;;;10.30;9.60;;;14.40;87.70;;;;;;5054084;28;20187;-71
2023/08/30 12:07:24;;;;;;;12.40;11.60;;;14.40;88.10;;;;;;5069397;28;20619;-68
2023/08/30 12:09:51;;;;;;;11.67;10.97;;;14.40;88.30;;;;;;5070785;28;21536;-65
2023/08/30 12:12:19;;;;;;;15.30;14.33;;;14.50;88.60;;;;;;5069211;28;20197;-70
2023/08/30 12:14:54;;;;;;;15.90;14.80;;;14.50;88.70;;;;;;5071374;28;20212;-70
2023/08/30 12:17:22;;;;;;;15.37;14.40;;;14.60;89.10;;;;;;5070732;28;20190;-66
2023/08/30 12:19:59;;;;;;;16.23;15.23;;;14.60;89.00;;;;;;5071099;28;20285;-71
2023/08/30 12:22:39;;;;;;;17.53;16.43;;;14.60;89.20;;;;;;5069252;28;20221;-71
2023/08/30 12:25:26;;;;;;;15.30;14.30;;;14.60;89.30;;;;;;5069327;28;20201;-66
2023/08/30 12:27:54;;;;;;;12.70;11.90;;;14.60;89.00;;;;;;5069178;28;20221;-66
2023/08/30 12:30:21;;;;;;;13.50;12.50;;;14.60;88.60;;;;;;5069859;28;20194;-66
2023/08/30 12:32:49;;;;;;;14.43;13.53;;;14.60;88.70;;;;;;5071301;28;20229;-66
2023/08/30 12:35:17;;;;;;;16.97;15.57;;;14.60;88.80;;;;;;5070395;28;20245;-66
2023/08/30 12:37:44;;;;;;;15.70;14.60;;;14.70;89.10;;;;;;5067368;28;20183;-66
2023/08/30 12:40:13;;;;;;;14.30;13.30;;;14.60;89.10;;;;;;5071061;28;20208;-69
2023/08/30 12:42:41;;;;;;;13.27;12.30;;;14.60;89.20;;;;;;5069587;28;20255;-72
2023/08/30 12:45:10;;;;;;;14.83;13.80;;;14.70;89.40;;;;;;5071193;28;20196;-71
2023/08/30 12:47:37;;;;;;;14.23;13.20;;;14.60;89.50;;;;;;5071017;28;20186;-70